Asheboro, North Carolina
Current Conditions -  °F | °C
As of 7:35 PM on Saturday 22 Nov 2014 (Local Time) from KHBI Reporting Station
Clear Clear  
Wind Chill: 39°   Ceiling: Unl
Heat Index: 39°   Visibility: 10mi
Dew Point: 20°   Wind: 0mph
Humidity: 47%   Direction: NA
Pressure: 30.38"   Gusts: NA
Location:  35.71°N, 79.81°W
Report Text: KHBI 230035Z AUTO 00000KT 10SM CLR 04/M06 A3038 RMK AO2 T00391065
Loading
Personal Weather Stations






























Interactive Weather Map New forecast layout! Learn more

10-Day Weather Forecast

Advertisements
Track Severe Weather on mobile